createdAt,value
2023-05-21T00:02:11.744Z,29.58
2023-05-21T00:05:18.186Z,33.28
2023-05-21T00:08:23.143Z,30.17
2023-05-21T00:11:27.421Z,28.42
2023-05-21T00:14:31.592Z,27.75
2023-05-21T00:17:36.956Z,29.65
2023-05-21T00:20:41.758Z,30.80
2023-05-21T00:23:48.151Z,29.13
2023-05-21T00:26:52.614Z,30.45
2023-05-21T00:29:56.717Z,32.83
2023-05-21T00:33:03.002Z,31.55
2023-05-21T00:36:07.318Z,31.58
2023-05-21T00:39:13.170Z,30.15
2023-05-21T00:42:18.132Z,30.02
2023-05-21T00:45:23.993Z,28.95
2023-05-21T00:48:28.262Z,33.10
2023-05-21T00:51:33.169Z,35.90
2023-05-21T00:54:37.088Z,31.60
2023-05-21T00:57:42.499Z,35.55
2023-05-21T01:00:46.860Z,30.73
2023-05-21T01:03:52.523Z,33.72
2023-05-21T01:06:58.524Z,32.75
2023-05-21T01:10:05.238Z,32.10
2023-05-21T01:13:09.553Z,35.75
2023-05-21T01:16:13.690Z,34.28
2023-05-21T01:19:23.787Z,32.83
2023-05-21T01:22:32.242Z,37.42
2023-05-21T01:25:36.615Z,33.63
2023-05-21T01:28:42.210Z,32.92
2023-05-21T01:32:13.718Z,33.50
2023-05-21T01:35:22.361Z,31.20
2023-05-21T01:38:37.869Z,31.85
2023-05-21T01:41:44.967Z,33.15
2023-05-21T01:44:54.916Z,32.80
2023-05-21T01:47:59.332Z,34.30
2023-05-21T01:51:05.418Z,30.13
2023-05-21T01:54:09.668Z,31.92
2023-05-21T01:57:14.017Z,30.50
2023-05-21T02:00:20.110Z,33.40
2023-05-21T02:03:27.399Z,32.03
2023-05-21T02:06:31.832Z,33.35
2023-05-21T02:09:35.660Z,32.40
2023-05-21T02:12:39.846Z,33.83
2023-05-21T02:15:44.893Z,34.63
2023-05-21T02:18:53.628Z,34.97
2023-05-21T02:21:57.660Z,32.90
2023-05-21T02:25:01.470Z,35.72
2023-05-21T02:28:05.175Z,32.08
2023-05-21T02:31:09.213Z,36.28
2023-05-21T02:34:13.586Z,33.00
2023-05-21T02:37:18.880Z,36.05
2023-05-21T02:40:22.801Z,33.58
2023-05-21T02:43:26.807Z,32.88
2023-05-21T02:46:30.958Z,34.85
2023-05-21T02:49:35.715Z,36.20
2023-05-21T02:52:39.951Z,33.15
2023-05-21T02:55:44.159Z,34.40
2023-05-21T02:58:48.226Z,35.70
2023-05-21T03:01:52.182Z,34.45
2023-05-21T03:04:56.336Z,38.28
2023-05-21T03:08:00.647Z,33.20
2023-05-21T03:11:04.886Z,35.38
2023-05-21T03:14:09.846Z,35.55
2023-05-21T03:17:15.011Z,36.95
2023-05-21T03:20:19.090Z,32.92
2023-05-21T03:23:23.125Z,37.90
2023-05-21T03:26:29.989Z,37.33
2023-05-21T03:29:34.488Z,36.15
2023-05-21T03:32:41.255Z,37.42
2023-05-21T03:35:45.326Z,37.65
2023-05-21T03:38:49.526Z,35.85
2023-05-21T03:41:53.360Z,40.17
2023-05-21T03:44:57.293Z,38.58
2023-05-21T03:48:02.001Z,34.63
2023-05-21T03:51:06.288Z,37.33
2023-05-21T03:54:10.715Z,38.05
2023-05-21T03:57:14.876Z,37.38
2023-05-21T04:00:19.016Z,35.92
2023-05-21T04:03:23.050Z,37.80
2023-05-21T04:06:28.016Z,35.17
2023-05-21T04:09:32.223Z,36.58
2023-05-21T04:12:36.218Z,37.72
2023-05-21T04:15:40.021Z,35.05
2023-05-21T04:18:45.667Z,35.95
2023-05-21T04:21:49.992Z,40.40
2023-05-21T04:24:54.586Z,33.85
2023-05-21T04:27:58.984Z,35.80
2023-05-21T04:31:03.272Z,39.28
2023-05-21T04:34:07.341Z,36.55
2023-05-21T04:37:11.330Z,36.75
2023-05-21T04:40:18.605Z,37.65
2023-05-21T04:43:25.795Z,36.05
2023-05-21T04:46:30.991Z,35.03
2023-05-21T04:49:35.337Z,37.85
2023-05-21T04:52:40.305Z,35.78
2023-05-21T04:55:44.700Z,38.13
2023-05-21T04:58:49.426Z,40.97
2023-05-21T05:01:53.597Z,37.60
2023-05-21T05:04:57.486Z,39.72
2023-05-21T05:08:01.293Z,36.47
2023-05-21T05:11:05.510Z,37.75
2023-05-21T05:14:09.682Z,38.20
2023-05-21T05:17:16.930Z,34.47
2023-05-21T05:20:21.298Z,35.65
2023-05-21T05:23:25.151Z,36.70
2023-05-21T05:26:28.883Z,37.10
2023-05-21T05:29:33.033Z,33.90
2023-05-21T05:32:36.737Z,37.05
2023-05-21T05:35:41.064Z,34.00
2023-05-21T05:38:44.947Z,34.67
2023-05-21T05:41:48.949Z,31.60
2023-05-21T05:44:52.859Z,35.47
2023-05-21T05:47:56.717Z,34.25
2023-05-21T05:51:01.782Z,28.80
2023-05-21T05:54:06.041Z,32.60
2023-05-21T05:57:09.913Z,30.67
2023-05-21T06:00:15.057Z,32.53
2023-05-21T06:03:19.484Z,33.05
2023-05-21T06:06:23.648Z,31.42
2023-05-21T06:09:27.659Z,32.95
2023-05-21T06:12:31.572Z,31.10
2023-05-21T06:15:36.183Z,30.55
2023-05-21T06:18:40.681Z,30.00
2023-05-21T06:21:44.966Z,28.55
2023-05-21T06:24:48.610Z,31.20
2023-05-21T06:27:53.064Z,31.02
2023-05-21T06:30:57.076Z,26.52
2023-05-21T06:34:01.339Z,28.42
2023-05-21T06:37:05.552Z,30.38
2023-05-21T06:40:09.898Z,30.27
2023-05-21T06:43:14.260Z,32.03
2023-05-21T06:46:18.505Z,29.85
2023-05-21T06:49:22.860Z,29.55
2023-05-21T06:52:27.147Z,27.77
2023-05-21T06:55:31.123Z,28.48
2023-05-21T06:58:35.631Z,33.22
2023-05-21T07:01:42.525Z,31.20
2023-05-21T07:04:47.274Z,27.08
2023-05-21T07:07:51.352Z,30.33
2023-05-21T07:10:56.388Z,29.23
2023-05-21T07:14:00.875Z,26.55
2023-05-21T07:17:05.064Z,27.98
2023-05-21T07:20:10.294Z,25.08
2023-05-21T07:23:14.737Z,25.08
2023-05-21T07:26:18.953Z,23.92
2023-05-21T07:29:23.054Z,25.30
2023-05-21T07:32:29.124Z,27.50
2023-05-21T07:35:33.267Z,23.35
2023-05-21T07:38:38.043Z,24.75
2023-05-21T07:41:42.209Z,23.00
2023-05-21T07:44:46.297Z,23.15
2023-05-21T07:47:50.490Z,20.27
2023-05-21T07:50:54.744Z,22.85
2023-05-21T07:53:59.097Z,19.00
2023-05-21T07:57:03.447Z,18.70
2023-05-21T08:00:14.076Z,20.98
2023-05-21T08:03:18.796Z,19.45
2023-05-21T08:06:24.330Z,19.33
2023-05-21T08:09:28.306Z,19.25
2023-05-21T08:12:32.766Z,19.90
2023-05-21T08:15:36.692Z,19.88
2023-05-21T08:18:41.306Z,16.60
2023-05-21T08:21:46.150Z,19.13
2023-05-21T08:24:50.077Z,18.42
2023-05-21T08:27:54.946Z,16.90
2023-05-21T08:30:58.974Z,15.40
2023-05-21T08:34:03.025Z,17.10
2023-05-21T08:37:07.233Z,16.83
2023-05-21T08:40:12.315Z,19.35
2023-05-21T08:43:17.204Z,16.33
2023-05-21T08:46:24.967Z,16.65
2023-05-21T08:49:34.479Z,15.77
2023-05-21T08:52:38.757Z,17.67
2023-05-21T08:55:43.738Z,18.90
2023-05-21T08:58:48.977Z,16.20
2023-05-21T09:01:53.854Z,18.10
2023-05-21T09:04:59.017Z,18.17
2023-05-21T09:08:08.775Z,18.63
2023-05-21T09:11:14.483Z,19.23
2023-05-21T09:14:19.546Z,19.23
2023-05-21T09:17:24.446Z,16.88
2023-05-21T09:20:28.786Z,17.50
2023-05-21T09:23:33.031Z,21.30
2023-05-21T09:26:38.192Z,18.02
2023-05-21T09:29:42.301Z,18.15
2023-05-21T09:32:53.939Z,18.35
2023-05-21T09:35:58.266Z,17.15
2023-05-21T09:39:03.318Z,19.92
2023-05-21T09:42:07.416Z,18.20
2023-05-21T09:45:12.204Z,17.85
2023-05-21T09:48:16.630Z,20.58
2023-05-21T09:51:21.316Z,21.77
2023-05-21T09:54:26.471Z,16.23
2023-05-21T09:57:30.623Z,18.67
2023-05-21T10:00:35.090Z,18.17
2023-05-21T10:03:42.941Z,18.20
2023-05-21T10:06:48.230Z,17.15
2023-05-21T10:09:57.230Z,19.58
2023-05-21T10:13:09.122Z,15.25
2023-05-21T10:16:13.509Z,17.95
2023-05-21T10:19:19.243Z,14.93
2023-05-21T10:22:25.117Z,15.30
2023-05-21T10:25:30.798Z,19.95
2023-05-21T10:28:35.289Z,20.33
2023-05-21T10:31:39.883Z,17.08
2023-05-21T10:34:44.445Z,16.30
2023-05-21T10:37:50.212Z,15.45
2023-05-21T10:40:54.325Z,17.52
2023-05-21T10:44:11.025Z,14.52
2023-05-21T10:47:36.402Z,14.50
2023-05-21T10:51:09.125Z,15.10
2023-05-21T10:54:16.168Z,16.27
2023-05-21T10:57:41.496Z,16.80
2023-05-21T11:00:45.605Z,14.43
2023-05-21T11:03:50.511Z,15.90
2023-05-21T11:06:56.349Z,14.70
2023-05-21T11:10:38.267Z,17.90
2023-05-21T11:13:49.052Z,14.90
2023-05-21T11:16:54.074Z,17.65
2023-05-21T11:20:05.156Z,15.57
2023-05-21T11:23:11.290Z,13.40
2023-05-21T11:26:16.611Z,13.07
2023-05-21T11:29:21.022Z,16.23
2023-05-21T11:32:24.837Z,13.38
2023-05-21T11:35:28.744Z,13.35
2023-05-21T11:38:33.945Z,15.15
2023-05-21T11:42:04.951Z,13.43
2023-05-21T11:45:09.239Z,13.77
2023-05-21T11:48:16.290Z,13.77
2023-05-21T11:51:21.181Z,14.15
2023-05-21T11:54:25.988Z,17.55
2023-05-21T11:57:33.278Z,13.20
2023-05-21T12:00:40.689Z,14.20
2023-05-21T12:03:45.341Z,18.48
2023-05-21T12:06:50.752Z,13.93
2023-05-21T12:09:55.001Z,17.08
2023-05-21T12:12:58.823Z,14.60
2023-05-21T12:16:05.898Z,14.80
2023-05-21T12:19:10.830Z,17.98
2023-05-21T12:22:18.310Z,15.85
2023-05-21T12:25:22.509Z,12.88
2023-05-21T12:28:26.599Z,17.25
2023-05-21T12:31:32.645Z,13.15
2023-05-21T12:34:54.592Z,15.63
2023-05-21T12:38:01.010Z,15.30
2023-05-21T12:41:06.030Z,14.45
2023-05-21T12:44:11.985Z,13.38
2023-05-21T12:47:16.348Z,14.20
2023-05-21T12:50:21.290Z,13.13
2023-05-21T12:53:25.444Z,11.15
2023-05-21T12:56:44.291Z,15.30
2023-05-21T13:00:00.128Z,15.25
2023-05-21T13:03:06.342Z,14.80
2023-05-21T13:06:11.098Z,12.20
2023-05-21T13:09:15.174Z,12.07
2023-05-21T13:12:21.290Z,13.27
2023-05-21T13:15:25.112Z,14.25
2023-05-21T13:18:29.122Z,15.77
2023-05-21T13:21:33.212Z,13.07
2023-05-21T13:24:38.192Z,17.70
2023-05-21T13:27:43.333Z,11.43
2023-05-21T13:30:47.725Z,14.63
2023-05-21T13:33:51.849Z,17.50
2023-05-21T13:36:55.918Z,11.90
2023-05-21T13:39:59.834Z,15.20
2023-05-21T13:43:03.625Z,11.82
2023-05-21T13:46:07.881Z,12.73
2023-05-21T13:49:12.078Z,13.52
2023-05-21T13:52:17.018Z,12.52
2023-05-21T13:55:21.289Z,14.55
2023-05-21T13:58:25.586Z,12.88
2023-05-21T14:01:29.894Z,13.43
2023-05-21T14:04:34.309Z,12.65
2023-05-21T14:07:39.812Z,12.80
2023-05-21T14:10:43.830Z,13.60
2023-05-21T14:13:48.276Z,14.68
2023-05-21T14:16:52.895Z,14.10
2023-05-21T14:19:57.446Z,14.88
2023-05-21T14:23:04.031Z,13.73
2023-05-21T14:26:08.269Z,14.05
2023-05-21T14:29:12.472Z,11.38
2023-05-21T14:32:18.378Z,10.95
2023-05-21T14:35:22.395Z,11.90
2023-05-21T14:38:27.679Z,14.25
2023-05-21T14:41:31.929Z,11.82
2023-05-21T14:44:35.998Z,16.05
2023-05-21T14:47:39.881Z,11.93
2023-05-21T14:50:44.558Z,13.68
2023-05-21T14:53:49.020Z,12.07
2023-05-21T14:56:54.208Z,15.98
2023-05-21T14:59:58.607Z,17.13
2023-05-21T15:03:03.255Z,12.82
2023-05-21T15:06:07.372Z,15.00
2023-05-21T15:09:11.584Z,12.95
2023-05-21T15:12:15.922Z,15.50
2023-05-21T15:15:23.349Z,12.63
2023-05-21T15:18:27.506Z,12.73
2023-05-21T15:21:31.419Z,14.32
2023-05-21T15:24:35.330Z,14.52
2023-05-21T15:27:39.711Z,13.95
2023-05-21T15:30:44.113Z,11.60
2023-05-21T15:33:48.960Z,15.15
2023-05-21T15:36:52.794Z,12.13
2023-05-21T15:39:56.773Z,12.82
2023-05-21T15:43:01.029Z,13.18
2023-05-21T15:46:05.277Z,10.93
2023-05-21T15:49:09.424Z,12.35
2023-05-21T15:52:13.372Z,13.10
2023-05-21T15:55:17.652Z,12.57
2023-05-21T15:58:21.660Z,15.10
2023-05-21T16:01:27.042Z,12.02
2023-05-21T16:04:33.066Z,11.82
2023-05-21T16:07:38.342Z,14.43
2023-05-21T16:10:42.855Z,14.05
2023-05-21T16:13:46.910Z,15.13
2023-05-21T16:16:51.083Z,13.90
2023-05-21T16:19:55.191Z,16.45
2023-05-21T16:22:59.165Z,13.25
2023-05-21T16:26:03.304Z,13.52
2023-05-21T16:29:07.535Z,13.45
2023-05-21T16:32:13.874Z,12.35
2023-05-21T16:35:18.799Z,12.70
2023-05-21T16:38:22.989Z,13.07
2023-05-21T16:41:27.139Z,16.65
2023-05-21T16:44:32.191Z,17.10
2023-05-21T16:47:36.935Z,14.30
2023-05-21T16:50:41.196Z,19.20
2023-05-21T16:53:45.537Z,13.48
2023-05-21T16:56:49.822Z,17.35
2023-05-21T16:59:54.015Z,12.77
2023-05-21T17:02:58.374Z,11.20
2023-05-21T17:06:02.600Z,13.68
2023-05-21T17:09:06.790Z,15.02
2023-05-21T17:12:10.977Z,11.05
2023-05-21T17:15:15.130Z,12.52
2023-05-21T17:18:19.618Z,11.00
2023-05-21T17:21:23.476Z,10.75
2023-05-21T17:24:27.486Z,10.95
2023-05-21T17:27:32.363Z,9.85
2023-05-21T17:30:36.555Z,14.43
2023-05-21T17:33:41.043Z,14.73
2023-05-21T17:36:45.308Z,9.65
2023-05-21T17:39:49.475Z,13.02
2023-05-21T17:42:53.395Z,14.95
2023-05-21T17:45:58.101Z,11.60
2023-05-21T17:49:02.200Z,15.77
2023-05-21T17:52:06.749Z,12.35
2023-05-21T17:55:10.631Z,15.25
2023-05-21T17:58:14.861Z,12.20
2023-05-21T18:01:19.925Z,14.35
2023-05-21T18:04:23.855Z,14.93
2023-05-21T18:07:28.330Z,13.25
2023-05-21T18:10:32.255Z,12.45
2023-05-21T18:13:36.647Z,14.63
2023-05-21T18:16:41.190Z,15.00
2023-05-21T18:19:45.500Z,22.13
2023-05-21T18:22:49.730Z,12.60
2023-05-21T18:25:53.793Z,12.52
2023-05-21T18:28:58.563Z,12.80
2023-05-21T18:32:02.691Z,13.35
2023-05-21T18:35:13.000Z,12.60
2023-05-21T18:38:18.659Z,15.65
2023-05-21T18:41:23.015Z,14.55
2023-05-21T18:44:27.255Z,12.95
2023-05-21T18:47:31.488Z,13.23
2023-05-21T18:50:37.055Z,12.60
2023-05-21T18:53:41.639Z,15.18
2023-05-21T18:56:46.134Z,14.43
2023-05-21T18:59:50.228Z,15.82
2023-05-21T19:02:55.110Z,13.18
2023-05-21T19:05:59.285Z,13.80
2023-05-21T19:09:03.524Z,15.00
2023-05-21T19:12:07.691Z,15.52
2023-05-21T19:15:15.149Z,17.73
2023-05-21T19:18:19.416Z,13.38
2023-05-21T19:21:23.674Z,15.00
2023-05-21T19:24:27.776Z,15.82
2023-05-21T19:27:32.016Z,15.57
2023-05-21T19:30:36.490Z,16.70
2023-05-21T19:33:40.831Z,16.98
2023-05-21T19:36:52.840Z,15.68
2023-05-21T19:39:57.677Z,16.80
2023-05-21T19:43:02.749Z,14.45
2023-05-21T19:46:06.721Z,12.63
2023-05-21T19:49:11.117Z,12.00
2023-05-21T19:52:15.737Z,13.90
2023-05-21T19:55:20.381Z,15.02
2023-05-21T19:58:26.860Z,11.95
2023-05-21T20:01:34.585Z,15.52
2023-05-21T20:04:38.895Z,13.95
2023-05-21T20:07:44.729Z,12.93
2023-05-21T20:10:51.321Z,12.25
2023-05-21T20:13:55.715Z,14.07
2023-05-21T20:17:05.682Z,13.60
2023-05-21T20:20:11.905Z,12.40
2023-05-21T20:23:15.677Z,13.05
2023-05-21T20:26:19.783Z,14.32
2023-05-21T20:29:23.870Z,12.35
2023-05-21T20:32:27.663Z,18.10
2023-05-21T20:35:31.532Z,12.80
2023-05-21T20:38:37.119Z,13.88
2023-05-21T20:41:44.678Z,13.30
2023-05-21T20:44:49.651Z,14.25
2023-05-21T20:47:53.626Z,13.98
2023-05-21T20:50:58.734Z,14.90
2023-05-21T20:54:02.539Z,11.77
2023-05-21T20:57:09.026Z,13.20
2023-05-21T21:00:14.495Z,12.18
2023-05-21T21:03:21.466Z,10.95
2023-05-21T21:06:26.202Z,14.40
2023-05-21T21:09:30.024Z,13.20
2023-05-21T21:12:33.794Z,11.63
2023-05-21T21:15:37.761Z,14.90
2023-05-21T21:18:41.790Z,17.50
2023-05-21T21:21:47.706Z,11.52
2023-05-21T21:24:51.553Z,13.05
2023-05-21T21:27:55.612Z,11.38
2023-05-21T21:30:59.968Z,15.52
2023-05-21T21:34:04.306Z,15.85
2023-05-21T21:37:08.699Z,12.60
2023-05-21T21:40:13.496Z,12.93
2023-05-21T21:43:17.704Z,11.73
2023-05-21T21:46:21.650Z,13.10
2023-05-21T21:49:26.061Z,10.77
2023-05-21T21:52:30.185Z,16.27
2023-05-21T21:55:34.251Z,13.25
2023-05-21T21:58:38.359Z,13.77
2023-05-21T22:01:42.994Z,11.68
2023-05-21T22:04:48.001Z,11.75
2023-05-21T22:07:52.418Z,12.27
2023-05-21T22:10:56.702Z,11.95
2023-05-21T22:14:00.677Z,12.23
2023-05-21T22:17:08.311Z,11.07
2023-05-21T22:20:12.757Z,12.95
2023-05-21T22:23:16.932Z,11.55
2023-05-21T22:26:21.708Z,12.77
2023-05-21T22:29:25.872Z,12.98
2023-05-21T22:32:29.794Z,13.50
2023-05-21T22:35:34.023Z,11.75
2023-05-21T22:38:37.909Z,16.75
2023-05-21T22:41:42.052Z,13.40
2023-05-21T22:44:46.242Z,15.13
2023-05-21T22:47:51.893Z,14.18
2023-05-21T22:50:58.165Z,11.23
2023-05-21T22:54:02.305Z,13.20
2023-05-21T22:57:06.571Z,14.55
2023-05-21T23:00:11.589Z,15.25
2023-05-21T23:03:16.717Z,15.85
2023-05-21T23:06:20.873Z,15.38
2023-05-21T23:09:25.267Z,12.27
2023-05-21T23:12:29.065Z,15.32
2023-05-21T23:15:33.660Z,14.45
2023-05-21T23:18:39.756Z,16.05
2023-05-21T23:21:43.543Z,12.55
2023-05-21T23:24:48.346Z,16.52
2023-05-21T23:27:52.855Z,12.35
2023-05-21T23:30:56.923Z,12.00
2023-05-21T23:34:02.720Z,13.40
2023-05-21T23:37:06.849Z,12.75
2023-05-21T23:40:11.644Z,12.43
2023-05-21T23:43:15.696Z,16.20
2023-05-21T23:46:19.750Z,13.77
2023-05-21T23:49:23.439Z,14.68
2023-05-21T23:52:27.244Z,13.60
2023-05-21T23:55:31.325Z,12.05
2023-05-21T23:58:35.577Z,14.32
